Fairview, OR

3:13 AM PDT on September 15, 2014 (GMT -0700)
APRSWXNET Gresham OR US | Change Station
CLOSE
Current Station
Personal Weather Station
Location: Fairview, OR
Elevation: 255 ft
Nearby Weather Stations

Elev 255 ft 45.52 °N, 122.46 °W | Updated 42 minutes ago

Clear
Clear
72 °F
Feels Like 76 °F
N
0
Wind Variable Wind from ENE
Gusts 4.0 mph

Today
High -- | Low -- °F
--% Chance of Precip.
Yesterday
High -- | Low -- °F
Precip. -- in
6:48 AM 7:20 PM
Waning Gibbous, 57% visible
Pressure 29.82 in
Visibility 10.0 miles
Clouds Clear
Heat Index 76 °F
Dew Point 39 °F
Humidity 30%
Rainfall 0.00 in
Snow Depth 0 in , 0 in , 0 in
UV 0 out of 12
Pollen 2.80 out of 12
Ozone Good
PM2.5 Moderate
Flu Activity Not available.
METAR KTTD 150953Z AUTO 09012KT 10SM CLR 21/03 A2982 RMK AO2 SLP097 T02060033

More Conditions Fewer Conditions

Pressure 29.82 in
Visibility 10.0 miles
Clouds Clear
Heat Index 76 °F
Dew Point 39 °F
Humidity 30%
Rainfall 0.00 in
Snow Depth 0 in , 0 in , 0 in
UV 0 out of 12
Pollen 2.80 out of 12
Ozone Good
PM2.5 Moderate
Flu Activity Not available.
METAR KTTD 150953Z AUTO 09012KT 10SM CLR 21/03 A2982 RMK AO2 SLP097 T02060033

More Conditions Fewer Conditions

10-Day Weather Forecast

Almanac

Astronomy

Sep. 15, 2014 Rise Set
Actual Time 6:48 AM PDT 7:20 PM PDT
Civil Twilight 6:18 AM PDT 7:50 PM PDT
Nautical Twilight 5:43 AM PDT 8:25 PM PDT
Astronomical Twilight 5:06 AM PDT 9:01 PM PDT
Moon 11:51 PM PDT 2:10 PM PDT
Length of Visible Light 13h 31m
Length of Day
12h 32m
Tomorrow will be 3m 10s shorter.
Waning Gibbous, 57% of the Moon is Illuminated
Today
Waning Gibbous
Sep 15
Last Quarter
Sep 24
New
Oct 1
First Quarter
Oct 8
Full

Today's Extremes

State Highs State Lows

Community

WunderPhotos

Upload Photos

1,753,428 photos uploaded!

WunderBlogs® & News

Nearby

Air Quality

  Air Quality AQ Index Pollutant
Yesterday Moderate
OZONE
Yesterday Moderate
PM2.5
Current Moderate
PM2.5
Current Good
OZONE
Monday Good
PM2.5

Snow Depth

Station Depth Elevation
Cascade Summit 0 in 4880 ft
Salt Creek Falls 0 in 4000 ft
Cold Springs Camp 0 in 6100 ft
Arbuckle Mountain 1 in 5400 ft
Mckenzie 0 in 4800 ft

Earthquake Activity

City Distance Mag. Time & Date
No recent earthquake activity has been reported nearby.
Minimum magnitude displayed is 2.5.

Coastal Water Temperatures

Place Temperature
No Stations Reporting

Nearby Weather Stations